Time;durP1;ratioP1;P1;durP2;ratioP2;P2;SDS_P1;SDS_P2;PMS_P1;PMS_P2;Temp;Humidity;BMP_temperature;BMP_pressure;BME280_temperature;BME280_humidity;BME280_pressure;Samples;Min_cycle;Max_cycle;Signal;HPM_P1;HPM_P2
2023/04/06 00:02:00;;;;;;;;;;;;;;;8.65;95.33;98975.13;4940133;28;19934;-40
2023/04/06 00:04:26;;;;;;;;;;;;;;;8.25;96.89;98999.09;4940278;28;19922;-40
2023/04/06 00:06:51;;;;;;;;;;;;;;;8.60;96.59;98982.09;4942061;28;19926;-40
2023/04/06 00:09:17;;;;;;;;;;;;;;;8.34;96.71;98990.38;4938469;28;19918;-40
2023/04/06 00:11:42;;;;;;;;;;;;;;;8.77;93.57;98946.56;4940470;28;19930;-40
2023/04/06 00:14:07;;;;;;;;;;;;;;;8.53;93.84;98953.16;4940557;28;19932;-40
2023/04/06 00:16:32;;;;;;;;;;;;;;;8.25;96.01;98981.16;4941853;28;20037;-40
2023/04/06 00:18:58;;;;;;;;;;;;;;;7.56;97.64;99010.00;4940223;28;19926;-40
2023/04/06 00:21:23;;;;;;;;;;;;;;;8.26;96.15;98974.31;4940816;28;19929;-40
2023/04/06 00:23:48;;;;;;;;;;;;;;;7.73;96.12;98983.16;4942472;28;20007;-40
2023/04/06 00:26:14;;;;;;;;;;;;;;;7.82;96.63;98987.22;4939385;28;19977;-40
2023/04/06 00:28:39;;;;;;;;;;;;;;;7.68;95.91;98978.97;4942226;28;19918;-40
2023/04/06 00:31:05;;;;;;;;;;;;;;;8.11;98.13;98988.31;4939307;28;19921;-40
2023/04/06 00:33:30;;;;;;;;;;;;;;;8.86;95.85;98957.50;4942517;28;20399;-40
2023/04/06 00:35:55;;;;;;;;;;;;;;;8.74;92.73;98931.25;4942400;28;20218;-40
2023/04/06 00:38:21;;;;;;;;;;;;;;;8.47;93.46;98944.78;4942840;28;20319;-40
2023/04/06 00:40:46;;;;;;;;;;;;;;;8.38;94.82;98956.91;4942793;28;19930;-40
2023/04/06 00:43:12;;;;;;;;;;;;;;;8.20;96.65;98970.16;4941504;28;19932;-40
2023/04/06 00:45:40;;;;;;;;;;;;;;;8.30;96.55;98969.09;4943046;28;20595;-40
2023/04/06 00:48:06;;;;;;;;;;;;;;;7.93;95.26;98958.78;4940612;28;19922;-40
2023/04/06 00:50:32;;;;;;;;;;;;;;;8.34;95.01;98942.44;4944700;28;19922;-40
2023/04/06 00:52:58;;;;;;;;;;;;;;;8.41;94.71;98942.34;4946375;28;20535;-40
2023/04/06 00:55:23;;;;;;;;;;;;;;;8.81;91.84;98902.84;4941441;28;19929;-40
2023/04/06 00:57:50;;;;;;;;;;;;;;;8.22;93.29;98927.34;4942492;28;19926;-40
2023/04/06 01:00:15;;;;;;;;;;;;;;;8.48;94.01;98931.03;4943367;28;19922;-40
2023/04/06 01:02:41;;;;;;;;;;;;;;;7.68;93.18;98926.00;4942910;28;19930;-40
2023/04/06 01:05:06;;;;;;;;;;;;;;;8.01;94.53;98935.56;4943307;28;19933;-40
2023/04/06 01:07:31;;;;;;;;;;;;;;;8.40;96.06;98935.50;4941484;28;20761;-40
2023/04/06 01:09:57;;;;;;;;;;;;;;;7.49;95.51;98940.91;4942425;28;21571;-40
2023/04/06 01:12:22;;;;;;;;;;;;;;;7.07;95.81;98951.16;4941477;28;21042;-40
2023/04/06 01:14:48;;;;;;;;;;;;;;;7.68;95.79;98933.69;4940141;28;20665;-40
2023/04/06 01:17:13;;;;;;;;;;;;;;;7.86;96.19;98929.88;4937619;28;19960;-40
2023/04/06 01:19:40;;;;;;;;;;;;;;;7.40;95.68;98933.41;4956871;28;20334;-40
2023/04/06 01:22:05;;;;;;;;;;;;;;;7.88;96.31;98920.44;4942760;28;20009;-40
2023/04/06 01:24:30;;;;;;;;;;;;;;;8.09;95.06;98901.13;4938779;28;19926;-40
2023/04/06 01:26:56;;;;;;;;;;;;;;;7.99;93.64;98886.03;4939651;28;20440;-40
2023/04/06 01:29:21;;;;;;;;;;;;;;;7.64;94.72;98908.16;4939040;28;19922;-40
2023/04/06 01:31:47;;;;;;;;;;;;;;;7.58;94.07;98901.44;4938740;28;21701;-40
2023/04/06 01:34:12;;;;;;;;;;;;;;;7.11;94.08;98905.81;4940906;28;20302;-40
2023/04/06 01:36:37;;;;;;;;;;;;;;;8.00;96.74;98913.34;4942545;28;19932;-40
2023/04/06 01:39:02;;;;;;;;;;;;;;;8.02;94.66;98896.19;4939371;28;19926;-40
2023/04/06 01:41:28;;;;;;;;;;;;;;;8.24;94.50;98892.25;4940579;28;19948;-40
2023/04/06 01:43:56;;;;;;;;;;;;;;;8.34;94.02;98885.16;4940967;28;19929;-40
2023/04/06 01:46:21;;;;;;;;;;;;;;;8.46;92.66;98866.06;4939348;28;19922;-40
2023/04/06 01:48:46;;;;;;;;;;;;;;;8.02;91.76;98855.19;4941117;28;19922;-40
2023/04/06 01:51:11;;;;;;;;;;;;;;;8.29;92.65;98869.06;4940628;28;21324;-40
2023/04/06 01:53:37;;;;;;;;;;;;;;;8.47;91.82;98854.94;4939595;28;20046;-40
2023/04/06 01:56:02;;;;;;;;;;;;;;;8.01;91.43;98848.38;4939401;28;19922;-40
2023/04/06 01:58:27;;;;;;;;;;;;;;;7.93;93.08;98869.88;4937667;28;19926;-40
2023/04/06 02:00:52;;;;;;;;;;;;;;;8.45;93.09;98864.41;4940213;28;20553;-41
2023/04/06 02:03:18;;;;;;;;;;;;;;;8.46;90.98;98843.84;4938121;28;19933;-40
2023/04/06 02:05:43;;;;;;;;;;;;;;;8.18;91.96;98853.91;4940728;28;19921;-40
2023/04/06 02:08:08;;;;;;;;;;;;;;;7.77;92.95;98866.00;4939957;28;20558;-40
2023/04/06 02:10:34;;;;;;;;;;;;;;;7.86;92.58;98859.81;4938212;28;19953;-40
2023/04/06 02:12:59;;;;;;;;;;;;;;;7.60;95.38;98893.75;4940819;28;19926;-40
2023/04/06 02:15:25;;;;;;;;;;;;;;;7.86;95.21;98880.34;4941357;28;19937;-40
2023/04/06 02:17:50;;;;;;;;;;;;;;;8.06;94.36;98872.19;4936646;28;19948;-40
2023/04/06 02:20:16;;;;;;;;;;;;;;;7.99;93.74;98868.91;4943709;28;21733;-40
2023/04/06 02:22:41;;;;;;;;;;;;;;;7.54;95.02;98887.84;4942710;28;19959;-40
2023/04/06 02:25:06;;;;;;;;;;;;;;;7.08;96.29;98911.84;4941345;28;20589;-41
2023/04/06 02:27:32;;;;;;;;;;;;;;;7.68;95.41;98886.72;4937907;28;20402;-41
2023/04/06 02:29:57;;;;;;;;;;;;;;;7.56;94.30;98874.19;4947532;28;19922;-40
2023/04/06 02:32:22;;;;;;;;;;;;;;;7.15;95.56;98897.22;4940053;28;20005;-40
2023/04/06 02:34:47;;;;;;;;;;;;;;;7.77;95.22;98881.38;4941002;28;20076;-40
2023/04/06 02:37:13;;;;;;;;;;;;;;;7.58;95.61;98886.06;4938168;28;20983;-40
2023/04/06 02:39:38;;;;;;;;;;;;;;;8.18;93.44;98859.03;4938543;28;20358;-40
2023/04/06 02:42:03;;;;;;;;;;;;;;;7.74;94.00;98876.31;4947414;28;19933;-40
2023/04/06 02:44:29;;;;;;;;;;;;;;;7.36;95.90;98895.94;4949745;28;20029;-40
2023/04/06 02:46:54;;;;;;;;;;;;;;;7.19;94.64;98883.47;4938096;28;19929;-40
2023/04/06 02:49:20;;;;;;;;;;;;;;;7.65;94.00;98871.41;4940151;28;20342;-40
2023/04/06 02:51:45;;;;;;;;;;;;;;;7.46;95.74;98892.31;4938600;28;19983;-40
2023/04/06 02:54:10;;;;;;;;;;;;;;;7.55;95.26;98881.03;4937954;28;19967;-41
2023/04/06 02:56:35;;;;;;;;;;;;;;;7.52;95.14;98881.91;4939869;28;19925;-40
2023/04/06 02:59:01;;;;;;;;;;;;;;;7.09;96.80;98903.31;4939664;28;19925;-40
2023/04/06 03:01:26;;;;;;;;;;;;;;;7.56;96.20;98884.44;4938267;28;19926;-40
2023/04/06 03:03:51;;;;;;;;;;;;;;;7.70;95.34;98874.72;4938896;28;20331;-40
2023/04/06 03:06:16;;;;;;;;;;;;;;;7.59;95.53;98884.34;4938302;28;19933;-40
2023/04/06 03:08:42;;;;;;;;;;;;;;;7.47;96.85;98888.03;4938612;28;19940;-40
2023/04/06 03:11:07;;;;;;;;;;;;;;;7.47;94.74;98878.59;4939882;28;19949;-40
2023/04/06 03:13:32;;;;;;;;;;;;;;;7.61;94.61;98869.78;4939398;28;19929;-40
2023/04/06 03:15:57;;;;;;;;;;;;;;;8.00;93.85;98849.22;4936303;28;20694;-40
2023/04/06 03:18:23;;;;;;;;;;;;;;;7.23;94.86;98884.25;4934436;28;19926;-40
2023/04/06 03:20:48;;;;;;;;;;;;;;;7.57;95.15;98873.28;4938288;28;19922;-40
2023/04/06 03:23:14;;;;;;;;;;;;;;;7.51;93.71;98859.75;4937588;28;20043;-40
2023/04/06 03:25:42;;;;;;;;;;;;;;;7.99;92.02;98834.75;4937226;28;20585;-40
2023/04/06 03:28:07;;;;;;;;;;;;;;;7.67;93.63;98855.13;4937961;28;20068;-41
2023/04/06 03:30:33;;;;;;;;;;;;;;;7.39;93.77;98864.28;4937002;28;19922;-41
2023/04/06 03:32:58;;;;;;;;;;;;;;;7.84;92.78;98841.91;4936998;28;20448;-41
2023/04/06 03:35:24;;;;;;;;;;;;;;;7.91;92.46;98840.03;4936726;28;20004;-40
2023/04/06 03:37:49;;;;;;;;;;;;;;;8.16;92.16;98842.84;4936972;28;19989;-40
2023/04/06 03:40:15;;;;;;;;;;;;;;;7.53;93.29;98858.00;4937658;28;20009;-40
2023/04/06 03:42:40;;;;;;;;;;;;;;;7.38;94.13;98871.13;4937057;28;20651;-40
2023/04/06 03:45:05;;;;;;;;;;;;;;;7.34;92.82;98861.81;4937946;28;20454;-40
2023/04/06 03:47:31;;;;;;;;;;;;;;;7.51;94.05;98872.56;4935824;28;20060;-40
2023/04/06 03:49:56;;;;;;;;;;;;;;;6.97;94.51;98877.94;4937915;28;19922;-40
2023/04/06 03:52:22;;;;;;;;;;;;;;;7.27;96.46;98891.00;4939503;28;19918;-41
2023/04/06 03:54:48;;;;;;;;;;;;;;;6.98;95.83;98887.31;4936942;28;19925;-40
2023/04/06 03:57:13;;;;;;;;;;;;;;;7.70;94.02;98856.75;4937768;28;19961;-40
2023/04/06 03:59:38;;;;;;;;;;;;;;;6.70;93.17;98867.34;4937935;28;19922;-40
2023/04/06 04:02:04;;;;;;;;;;;;;;;7.38;94.77;98866.00;4936164;28;19933;-40
2023/04/06 04:04:29;;;;;;;;;;;;;;;7.56;95.21;98874.19;4936031;28;19926;-40
2023/04/06 04:06:54;;;;;;;;;;;;;;;7.87;92.30;98836.72;4929568;28;19926;-40
2023/04/06 04:09:20;;;;;;;;;;;;;;;7.74;93.30;98850.69;4936477;28;19930;-40
2023/04/06 04:11:45;;;;;;;;;;;;;;;7.61;92.41;98856.97;4937883;28;20659;-40
2023/04/06 04:14:10;;;;;;;;;;;;;;;7.72;93.05;98860.13;4938237;28;19965;-40
2023/04/06 04:16:35;;;;;;;;;;;;;;;7.94;92.11;98845.94;4937318;28;19926;-40
2023/04/06 04:19:01;;;;;;;;;;;;;;;7.47;94.06;98876.06;4935682;28;19918;-40
2023/04/06 04:21:29;;;;;;;;;;;;;;;7.39;93.09;98871.97;4936971;28;19970;-40
2023/04/06 04:23:55;;;;;;;;;;;;;;;6.87;94.92;98896.91;4940257;28;19979;-40
2023/04/06 04:26:20;;;;;;;;;;;;;;;6.59;96.11;98907.66;4935276;28;21675;-40
2023/04/06 04:28:45;;;;;;;;;;;;;;;6.54;95.79;98901.75;4937457;28;19933;-40
2023/04/06 04:31:11;;;;;;;;;;;;;;;6.78;95.47;98891.97;4935221;28;19922;-40
2023/04/06 04:33:36;;;;;;;;;;;;;;;7.04;95.52;98887.16;4939230;28;20629;-41
2023/04/06 04:36:01;;;;;;;;;;;;;;;6.62;95.30;98891.38;4938223;28;20278;-40
2023/04/06 04:38:27;;;;;;;;;;;;;;;6.26;96.14;98902.19;4938326;28;19979;-40
2023/04/06 04:40:52;;;;;;;;;;;;;;;6.15;97.21;98916.88;4938931;28;20018;-40
2023/04/06 04:43:17;;;;;;;;;;;;;;;6.61;97.12;98905.88;4936561;28;20367;-40
2023/04/06 04:45:42;;;;;;;;;;;;;;;6.37;97.46;98907.16;4937178;28;19922;-41
2023/04/06 04:48:08;;;;;;;;;;;;;;;6.19;96.75;98899.78;4938027;28;20399;-40
2023/04/06 04:50:33;;;;;;;;;;;;;;;6.37;97.58;98906.31;4941508;28;19972;-40
2023/04/06 04:52:59;;;;;;;;;;;;;;;6.33;97.30;98902.13;4944875;28;19922;-40
2023/04/06 04:55:24;;;;;;;;;;;;;;;6.20;97.88;98911.69;4940967;28;19922;-40
2023/04/06 04:57:50;;;;;;;;;;;;;;;6.43;97.48;98906.19;4938976;28;19926;-40
2023/04/06 05:00:15;;;;;;;;;;;;;;;6.58;98.35;98910.22;4940087;28;19933;-40
2023/04/06 05:02:40;;;;;;;;;;;;;;;6.96;96.75;98891.63;4941156;28;20713;-40
2023/04/06 05:05:06;;;;;;;;;;;;;;;6.11;98.05;98919.50;4938475;28;19972;-40
2023/04/06 05:07:31;;;;;;;;;;;;;;;6.11;97.60;98910.09;4939342;28;20016;-40
2023/04/06 05:09:56;;;;;;;;;;;;;;;6.69;98.61;98913.44;4937592;28;20012;-40
2023/04/06 05:12:22;;;;;;;;;;;;;;;6.58;97.58;98905.09;4939310;28;19926;-41
2023/04/06 05:14:47;;;;;;;;;;;;;;;6.61;96.43;98890.53;4938876;28;19922;-40
2023/04/06 05:17:12;;;;;;;;;;;;;;;6.53;97.02;98904.34;4936172;28;20792;-40
2023/04/06 05:19:37;;;;;;;;;;;;;;;6.83;96.76;98892.72;4940010;28;19923;-41
2023/04/06 05:22:03;;;;;;;;;;;;;;;6.66;96.12;98893.00;4953556;28;19922;-40
2023/04/06 05:24:28;;;;;;;;;;;;;;;6.42;96.85;98904.53;4941380;28;19925;-41
2023/04/06 05:26:54;;;;;;;;;;;;;;;6.17;96.99;98898.97;4938029;28;20453;-40
2023/04/06 05:29:20;;;;;;;;;;;;;;;6.80;95.56;98879.97;4942354;28;19926;-41
2023/04/06 05:31:45;;;;;;;;;;;;;;;6.47;95.90;98892.50;4941013;28;19926;-41
2023/04/06 05:34:12;;;;;;;;;;;;;;;6.32;95.79;98891.03;4938817;28;20057;-41
2023/04/06 05:36:37;;;;;;;;;;;;;;;6.85;97.03;98898.66;4951546;28;20402;-40
2023/04/06 05:39:02;;;;;;;;;;;;;;;6.35;94.92;98877.34;4939692;28;19930;-40
2023/04/06 05:41:28;;;;;;;;;;;;;;;6.75;94.87;98868.97;4938354;28;20321;-40
2023/04/06 05:43:53;;;;;;;;;;;;;;;6.98;95.65;98881.31;4938480;28;19926;-40
2023/04/06 05:46:18;;;;;;;;;;;;;;;6.61;93.97;98862.38;4940560;28;20529;-40
2023/04/06 05:48:43;;;;;;;;;;;;;;;6.82;94.43;98873.09;4939898;28;20635;-40
2023/04/06 05:51:09;;;;;;;;;;;;;;;6.59;94.58;98881.19;4939087;28;20013;-40
2023/04/06 05:53:34;;;;;;;;;;;;;;;7.41;94.79;98863.38;4940523;28;19922;-40
2023/04/06 05:56:03;;;;;;;;;;;;;;;7.20;93.93;98863.81;4937618;28;20739;-40
2023/04/06 05:58:28;;;;;;;;;;;;;;;6.78;93.06;98856.97;4939962;28;19929;-40
2023/04/06 06:00:57;;;;;;;;;;;;;;;7.41;92.55;98842.03;4953990;28;19926;-40
2023/04/06 06:03:22;;;;;;;;;;;;;;;7.54;91.85;98846.84;4937867;28;19927;-40
2023/04/06 06:05:48;;;;;;;;;;;;;;;7.85;90.53;98823.09;4938552;28;19922;-41
2023/04/06 06:08:13;;;;;;;;;;;;;;;7.89;88.70;98801.63;4938417;28;19926;-41
2023/04/06 06:10:39;;;;;;;;;;;;;;;7.39;88.85;98813.91;4936927;28;19922;-41
2023/04/06 06:13:05;;;;;;;;;;;;;;;7.21;91.32;98840.75;4941337;28;20234;-40
2023/04/06 06:15:30;;;;;;;;;;;;;;;8.19;90.39;98814.56;4941835;28;19922;-41
2023/04/06 06:17:55;;;;;;;;;;;;;;;7.88;88.34;98792.25;4936654;28;20516;-41
2023/04/06 06:20:21;;;;;;;;;;;;;;;8.35;86.87;98782.50;4940932;28;19991;-41
2023/04/06 06:22:46;;;;;;;;;;;;;;;8.47;85.41;98770.25;4940085;28;19923;-40
2023/04/06 06:25:11;;;;;;;;;;;;;;;8.24;86.02;98779.38;4940298;28;19922;-41
2023/04/06 06:27:37;;;;;;;;;;;;;;;8.16;84.59;98765.91;4941141;28;20104;-40
2023/04/06 06:30:02;;;;;;;;;;;;;;;9.20;86.23;98770.72;4939534;28;21110;-41
2023/04/06 06:32:27;;;;;;;;;;;;;;;8.22;84.05;98773.44;4940253;28;19922;-40
2023/04/06 06:34:53;;;;;;;;;;;;;;;9.19;84.84;98761.34;4939910;28;20019;-41
2023/04/06 06:37:18;;;;;;;;;;;;;;;9.47;82.41;98739.91;4938937;28;19930;-41
2023/04/06 06:39:43;;;;;;;;;;;;;;;9.21;84.88;98764.72;4939113;28;19926;-40
2023/04/06 06:42:08;;;;;;;;;;;;;;;8.89;83.11;98757.09;4937728;28;20046;-41
2023/04/06 06:44:34;;;;;;;;;;;;;;;8.78;85.56;98783.94;4939273;28;20067;-40
2023/04/06 06:46:59;;;;;;;;;;;;;;;9.00;84.23;98760.19;4939664;28;20295;-40
2023/04/06 06:49:24;;;;;;;;;;;;;;;8.76;83.81;98749.75;4940872;28;19925;-40
2023/04/06 06:51:50;;;;;;;;;;;;;;;8.48;83.08;98761.66;4940708;28;19925;-40
2023/04/06 06:54:15;;;;;;;;;;;;;;;9.58;83.02;98748.13;4940928;28;20909;-41
2023/04/06 06:56:40;;;;;;;;;;;;;;;9.49;82.60;98745.84;4938768;28;19948;-40
2023/04/06 06:59:05;;;;;;;;;;;;;;;9.58;81.64;98737.00;4940123;28;20021;-41
2023/04/06 07:01:34;;;;;;;;;;;;;;;9.11;80.70;98729.88;4939087;28;19926;-40
2023/04/06 07:04:00;;;;;;;;;;;;;;;9.52;79.87;98720.03;4938460;28;19929;-40
2023/04/06 07:06:25;;;;;;;;;;;;;;;9.75;79.61;98714.16;4940091;28;20311;-41
2023/04/06 07:08:50;;;;;;;;;;;;;;;9.74;78.84;98706.47;4935808;28;19926;-41
2023/04/06 07:11:16;;;;;;;;;;;;;;;9.68;78.88;98706.69;4940988;28;19922;-40
2023/04/06 07:13:41;;;;;;;;;;;;;;;10.28;78.73;98692.59;4939322;28;19926;-40
2023/04/06 07:16:07;;;;;;;;;;;;;;;10.39;77.00;98690.50;4937767;28;20362;-41
2023/04/06 07:18:32;;;;;;;;;;;;;;;9.63;77.91;98699.97;4940881;28;20368;-40
2023/04/06 07:20:57;;;;;;;;;;;;;;;9.63;78.66;98712.81;4941782;28;19926;-41
2023/04/06 07:23:23;;;;;;;;;;;;;;;9.85;78.63;98709.53;4941794;28;19926;-41
2023/04/06 07:25:50;;;;;;;;;;;;;;;10.58;77.09;98689.84;4939313;28;20017;-41
2023/04/06 07:28:16;;;;;;;;;;;;;;;10.22;79.41;98718.56;4939013;28;19933;-41
2023/04/06 07:30:41;;;;;;;;;;;;;;;10.48;77.96;98697.06;4953654;28;19926;-40
2023/04/06 07:33:06;;;;;;;;;;;;;;;10.96;75.79;98674.69;4939269;28;20288;-41
2023/04/06 07:35:32;;;;;;;;;;;;;;;9.96;75.63;98676.56;4937360;28;20027;-40
2023/04/06 07:37:57;;;;;;;;;;;;;;;10.57;77.61;98685.59;4938128;28;19930;-41
2023/04/06 07:40:23;;;;;;;;;;;;;;;11.18;76.85;98680.69;4940357;28;19922;-41
2023/04/06 07:42:48;;;;;;;;;;;;;;;10.61;76.40;98671.72;4938611;28;19979;-41
2023/04/06 07:45:15;;;;;;;;;;;;;;;10.67;79.00;98704.94;4939704;28;19922;-41
2023/04/06 07:47:40;;;;;;;;;;;;;;;10.32;77.44;98689.06;4937438;28;19926;-41
2023/04/06 07:50:06;;;;;;;;;;;;;;;11.09;78.12;98691.34;4940422;28;19922;-41
2023/04/06 07:52:32;;;;;;;;;;;;;;;11.84;76.55;98659.91;4939040;28;19926;-41
2023/04/06 07:54:57;;;;;;;;;;;;;;;12.01;75.76;98656.63;4941378;28;20017;-41
2023/04/06 07:57:22;;;;;;;;;;;;;;;12.01;72.09;98630.81;4937040;28;20525;-41
2023/04/06 07:59:48;;;;;;;;;;;;;;;11.42;73.18;98645.31;4937884;28;20005;-41
2023/04/06 08:02:13;;;;;;;;;;;;;;;12.06;74.33;98654.69;4937338;28;19926;-40
2023/04/06 08:04:38;;;;;;;;;;;;;;;12.72;72.43;98641.38;4940663;28;20890;-41
2023/04/06 08:07:03;;;;;;;;;;;;;;;12.59;74.25;98658.38;4939891;28;19961;-41
2023/04/06 08:09:29;;;;;;;;;;;;;;;12.26;71.92;98638.31;4940748;28;20578;-41
2023/04/06 08:11:55;;;;;;;;;;;;;;;12.51;71.35;98638.06;4935845;28;19923;-41
2023/04/06 08:14:20;;;;;;;;;;;;;;;13.04;73.70;98659.72;4938412;28;19926;-41
2023/04/06 08:16:45;;;;;;;;;;;;;;;13.71;70.53;98619.41;4935536;28;19972;-41
2023/04/06 08:19:11;;;;;;;;;;;;;;;12.84;66.49;98616.75;4934882;28;19931;-41
2023/04/06 08:21:36;;;;;;;;;;;;;;;14.75;69.19;98620.81;4938611;28;19926;-41
2023/04/06 08:24:02;;;;;;;;;;;;;;;13.39;68.09;98631.38;4938261;28;19922;-41
2023/04/06 08:26:27;;;;;;;;;;;;;;;13.47;67.51;98621.44;4937958;28;19952;-40
2023/04/06 08:28:53;;;;;;;;;;;;;;;14.24;69.72;98630.47;4938687;28;20154;-41
2023/04/06 08:31:18;;;;;;;;;;;;;;;14.22;69.65;98643.50;4938189;28;19930;-41
2023/04/06 08:33:43;;;;;;;;;;;;;;;14.43;69.87;98630.31;4941513;28;19926;-41
2023/04/06 08:36:09;;;;;;;;;;;;;;;13.99;66.95;98613.63;4941637;28;19934;-41
2023/04/06 08:38:35;;;;;;;;;;;;;;;14.56;67.49;98615.81;4943678;28;20000;-41
2023/04/06 08:41:05;;;;;;;;;;;;;;;15.63;68.24;98615.84;4946155;28;19937;-41
2023/04/06 08:43:31;;;;;;;;;;;;;;;14.17;63.19;98588.50;4939158;28;20030;-41
2023/04/06 08:45:56;;;;;;;;;;;;;;;14.90;68.15;98626.91;4940201;28;20054;-41
2023/04/06 08:48:21;;;;;;;;;;;;;;;16.06;63.95;98582.16;4940518;28;19922;-41
2023/04/06 08:50:46;;;;;;;;;;;;;;;15.04;63.00;98577.69;4942025;28;19932;-41
2023/04/06 08:53:12;;;;;;;;;;;;;;;15.07;63.13;98589.66;4942640;28;20555;-41
2023/04/06 08:55:37;;;;;;;;;;;;;;;16.53;63.41;98580.94;4954931;28;19944;-41
2023/04/06 08:58:02;;;;;;;;;;;;;;;16.12;63.33;98581.75;4937875;28;19930;-41
2023/04/06 09:00:28;;;;;;;;;;;;;;;14.52;60.25;98575.41;4940461;28;20025;-41
2023/04/06 09:02:54;;;;;;;;;;;;;;;14.33;63.98;98605.84;4941394;28;19926;-41
2023/04/06 09:05:19;;;;;;;;;;;;;;;15.72;65.37;98601.53;4943199;28;20543;-41
2023/04/06 09:07:45;;;;;;;;;;;;;;;16.22;62.11;98576.84;4938884;28;19929;-41
2023/04/06 09:10:10;;;;;;;;;;;;;;;16.37;60.99;98568.06;4940997;28;20019;-41
2023/04/06 09:12:35;;;;;;;;;;;;;;;15.22;65.30;98606.13;4941812;28;19924;-41
2023/04/06 09:15:01;;;;;;;;;;;;;;;15.41;64.59;98611.91;4941613;28;20847;-41
2023/04/06 09:17:30;;;;;;;;;;;;;;;16.31;61.56;98571.91;4946248;28;19929;-41
2023/04/06 09:19:55;;;;;;;;;;;;;;;14.93;62.49;98599.97;4942196;28;20792;-41
2023/04/06 09:22:21;;;;;;;;;;;;;;;14.80;61.55;98586.84;4959249;28;19959;-41
2023/04/06 09:24:47;;;;;;;;;;;;;;;16.21;61.33;98580.34;4948200;28;19926;-41
2023/04/06 09:27:13;;;;;;;;;;;;;;;16.45;59.44;98565.00;4946420;28;19922;-41
2023/04/06 09:29:40;;;;;;;;;;;;;;;17.03;60.67;98581.28;4943428;28;21816;-41
2023/04/06 09:32:06;;;;;;;;;;;;;;;17.67;54.80;98518.84;4941443;28;20001;-41
2023/04/06 09:34:31;;;;;;;;;;;;;;;15.95;56.04;98554.22;4941819;28;20371;-41
2023/04/06 09:36:58;;;;;;;;;;;;;;;17.38;55.64;98534.72;4940029;28;19926;-41
2023/04/06 09:39:23;;;;;;;;;;;;;;;15.21;57.29;98573.31;4941311;28;19933;-41
2023/04/06 09:41:50;;;;;;;;;;;;;;;16.63;59.41;98573.41;4937877;28;19918;-41
2023/04/06 09:44:15;;;;;;;;;;;;;;;17.45;61.23;98580.22;4938976;28;19934;-41
2023/04/06 09:46:41;;;;;;;;;;;;;;;17.34;63.41;98587.91;4936576;28;19915;-41
2023/04/06 09:49:07;;;;;;;;;;;;;;;18.31;59.85;98553.47;4938430;28;19930;-41
2023/04/06 09:51:38;;;;;;;;;;;;;;;16.31;55.82;98543.31;4939168;28;19926;-41
2023/04/06 09:54:04;;;;;;;;;;;;;;;17.17;58.73;98556.94;4938406;28;20000;-41
2023/04/06 09:56:45;;;;;;;;;;;;;;;17.89;58.52;98557.31;4954951;28;19926;-41
2023/04/06 09:59:13;;;;;;;;;;;;;;;18.02;56.72;98536.44;4940563;28;20453;-41
2023/04/06 10:01:38;;;;;;;;;;;;;;;19.28;52.98;98509.09;4942226;28;20035;-41
2023/04/06 10:04:07;;;;;;;;;;;;;;;18.41;53.26;98511.13;4940029;28;21325;-41
2023/04/06 10:06:34;;;;;;;;;;;;;;;18.21;53.88;98521.19;4936581;28;20007;-41
2023/04/06 10:08:59;;;;;;;;;;;;;;;19.00;51.56;98498.09;4939417;28;20141;-41
2023/04/06 10:11:25;;;;;;;;;;;;;;;18.03;54.63;98517.28;4938918;28;19928;-41
2023/04/06 10:13:50;;;;;;;;;;;;;;;18.50;55.98;98552.19;4939872;28;19930;-41
2023/04/06 10:16:15;;;;;;;;;;;;;;;18.57;52.76;98511.66;4938022;28;19987;-41
2023/04/06 10:18:42;;;;;;;;;;;;;;;17.79;50.44;98494.59;4937646;28;20548;-41
2023/04/06 10:21:11;;;;;;;;;;;;;;;19.57;51.94;98496.41;4940773;28;19921;-41
2023/04/06 10:23:41;;;;;;;;;;;;;;;17.90;51.38;98496.44;4939595;28;20193;-41
2023/04/06 10:26:12;;;;;;;;;;;;;;;19.20;52.34;98500.06;4937065;28;19922;-41
2023/04/06 10:28:37;;;;;;;;;;;;;;;18.45;50.66;98492.53;4939741;28;20466;-41
2023/04/06 10:31:05;;;;;;;;;;;;;;;18.97;52.83;98513.97;4942490;28;19933;-41
2023/04/06 10:33:31;;;;;;;;;;;;;;;17.22;52.60;98526.25;4940890;28;19926;-41
2023/04/06 10:35:56;;;;;;;;;;;;;;;18.46;51.71;98507.22;4941974;28;20401;-41
2023/04/06 10:38:22;;;;;;;;;;;;;;;18.00;49.88;98496.66;4927862;28;20049;-41
2023/04/06 10:40:48;;;;;;;;;;;;;;;19.48;48.99;98476.19;4939414;28;21710;-41
2023/04/06 10:43:22;;;;;;;;;;;;;;;18.33;45.51;98460.34;4938884;28;19972;-42
2023/04/06 10:45:57;;;;;;;;;;;;;;;18.15;47.21;98490.34;4941311;28;20433;-42
2023/04/06 10:48:23;;;;;;;;;;;;;;;19.73;50.40;98502.16;4940263;28;19926;-40
2023/04/06 10:50:49;;;;;;;;;;;;;;;18.59;46.79;98473.28;4939802;28;19922;-40
2023/04/06 10:53:21;;;;;;;;;;;;;;;19.73;48.50;98483.84;4938465;28;19944;-40
2023/04/06 10:55:46;;;;;;;;;;;;;;;18.78;47.98;98483.22;4941593;28;19922;-40
2023/04/06 10:58:11;;;;;;;;;;;;;;;19.51;47.48;98461.13;4939474;28;19930;-40
2023/04/06 11:00:43;;;;;;;;;;;;;;;19.53;46.06;98454.03;4942254;28;21815;-40
2023/04/06 11:03:08;;;;;;;;;;;;;;;17.92;46.53;98471.94;4938713;28;20382;-40
2023/04/06 11:05:33;;;;;;;;;;;;;;;16.53;42.03;98437.97;4941923;28;19964;-40
2023/04/06 11:07:59;;;;;;;;;;;;;;;18.87;47.40;98481.69;4938675;28;20557;-40
2023/04/06 11:10:24;;;;;;;;;;;;;;;20.18;48.50;98477.72;4942321;28;19922;-40
2023/04/06 11:12:53;;;;;;;;;;;;;;;19.15;49.42;98483.88;4937430;28;20036;-41
2023/04/06 11:15:18;;;;;;;;;;;;;;;20.65;45.58;98441.69;4941476;28;19926;-41
2023/04/06 11:17:45;;;;;;;;;;;;;;;17.30;43.43;98440.69;4942314;28;20362;-41
2023/04/06 11:20:11;;;;;;;;;;;;;;;19.52;47.52;98473.22;4941612;28;19929;-41
2023/04/06 11:22:36;;;;;;;;;;;;;;;20.36;46.75;98442.22;4934788;28;19926;-41
2023/04/06 11:25:05;;;;;;;;;;;;;;;20.34;46.00;98457.22;4938536;28;19923;-41
2023/04/06 11:27:31;;;;;;;;;;;;;;;18.23;44.84;98451.53;4934573;28;19930;-41
2023/04/06 11:29:57;;;;;;;;;;;;;;;19.58;42.03;98404.84;4933848;28;19986;-41
2023/04/06 11:32:23;;;;;;;;;;;;;;;19.14;46.36;98452.69;4938582;28;19929;-41
2023/04/06 11:34:48;;;;;;;;;;;;;;;20.28;49.53;98470.81;4937029;28;19933;-41
2023/04/06 11:37:14;;;;;;;;;;;;;;;19.69;46.55;98443.25;4937258;28;19950;-44
2023/04/06 11:39:40;;;;;;;;;;;;;;;17.29;46.70;98465.06;4937226;28;20374;-41
2023/04/06 11:42:05;;;;;;;;;;;;;;;16.79;43.26;98412.03;4935783;28;19932;-41
2023/04/06 11:44:35;;;;;;;;;;;;;;;18.51;44.37;98428.66;4936621;28;20319;-41
2023/04/06 11:47:01;;;;;;;;;;;;;;;18.62;45.99;98436.53;4936321;28;21418;-41
2023/04/06 11:49:27;;;;;;;;;;;;;;;20.19;45.29;98420.09;4937486;28;20741;-41
2023/04/06 11:51:52;;;;;;;;;;;;;;;21.81;49.94;98461.63;4933450;28;19937;-41
2023/04/06 11:54:17;;;;;;;;;;;;;;;21.03;42.71;98394.00;4937529;28;19927;-41
2023/04/06 11:56:45;;;;;;;;;;;;;;;21.10;43.61;98415.25;4936538;28;20420;-41
2023/04/06 11:59:11;;;;;;;;;;;;;;;20.34;41.95;98386.59;4937935;28;19938;-41
2023/04/06 12:01:44;;;;;;;;;;;;;;;18.21;43.82;98432.56;4937169;28;19933;-41
2023/04/06 12:04:09;;;;;;;;;;;;;;;19.30;43.40;98426.25;4935879;28;19921;-41
2023/04/06 12:06:35;;;;;;;;;;;;;;;19.34;43.45;98410.22;4935866;28;19933;-41
2023/04/06 12:09:00;;;;;;;;;;;;;;;19.55;43.84;98431.22;4938927;28;19929;-41
2023/04/06 12:11:25;;;;;;;;;;;;;;;17.96;42.16;98397.84;4941660;28;19926;-41
2023/04/06 12:13:50;;;;;;;;;;;;;;;17.84;44.25;98409.16;4940190;28;19979;-41
2023/04/06 12:16:16;;;;;;;;;;;;;;;18.36;47.39;98457.53;4937090;28;19926;-41
2023/04/06 12:18:41;;;;;;;;;;;;;;;20.34;46.93;98444.13;4938414;28;20542;-41
2023/04/06 12:21:06;;;;;;;;;;;;;;;21.03;50.28;98453.38;4941247;28;19968;-41
2023/04/06 12:23:32;;;;;;;;;;;;;;;19.88;47.31;98432.16;4940301;28;19980;-41
2023/04/06 12:25:57;;;;;;;;;;;;;;;20.98;47.71;98431.97;4939829;28;19933;-41
2023/04/06 12:28:26;;;;;;;;;;;;;;;21.27;46.24;98421.66;4940687;28;19926;-41
2023/04/06 12:30:51;;;;;;;;;;;;;;;20.47;44.02;98413.41;4941917;28;20014;-41
2023/04/06 12:33:17;;;;;;;;;;;;;;;19.10;45.32;98426.00;4940125;28;19926;-41
2023/04/06 12:35:42;;;;;;;;;;;;;;;21.37;49.51;98446.13;4943506;28;19962;-41
2023/04/06 12:38:07;;;;;;;;;;;;;;;21.82;50.15;98447.53;4944130;28;19934;-41
2023/04/06 12:40:36;;;;;;;;;;;;;;;22.35;48.79;98439.34;4942956;28;20228;-41
2023/04/06 12:43:01;;;;;;;;;;;;;;;21.15;44.01;98370.34;4938402;28;19972;-41
2023/04/06 12:45:26;;;;;;;;;;;;;;;19.80;48.34;98439.78;4943512;28;19930;-41